This is the latest recevied weather packets stored in our database for station/object KO6LQJ. If no packets are shown the sender has not sent any weather packets the latest 10 day(s).
| Time | Temp. | Humidity | Pressure | Rain* | Wind** | Luminosity | Snow |
|---|---|---|---|---|---|---|---|
| 1777314218 | 20° C | 37% | 1018 hPa | 0 mm | - | 547 W/m² | - |
| 1777313916 | 18.89° C | 39% | 1018.1 hPa | 0 mm | - | 979 W/m² | - |
| 1777313613 | 18.89° C | 40% | 1018 hPa | 0 mm | - | 363 W/m² | - |
| 1777313311 | 18.89° C | 40% | 1018.1 hPa | 0 mm | - | 293 W/m² | - |
| 1777313007 | 18.89° C | 39% | 1018 hPa | 0 mm | - | 179 W/m² | - |
| 1777312703 | 18.89° C | 37% | 1017.9 hPa | 0 mm | - | 180 W/m² | - |
| 1777312400 | 18.33° C | 37% | 1018.1 hPa | 0 mm | - | 180 W/m² | - |
| 1777312098 | 20.56° C | 33% | 1018.1 hPa | 0 mm | - | 466 W/m² | - |
| 1777311795 | 20.56° C | 34% | 1017.9 hPa | 0 mm | - | 931 W/m² | - |
| 1777311492 | 20° C | 34% | 1018 hPa | 0 mm | - | 914 W/m² | - |
| 1777311189 | 18.89° C | 34% | 1017.9 hPa | 0 mm | - | 897 W/m² | - |
| 1777310887 | 20° C | 34% | 1017.9 hPa | 0 mm | - | 550 W/m² | - |
| 1777310584 | 18.89° C | 35% | 1018 hPa | 0 mm | - | 494 W/m² | - |
| 1777310282 | 17.22° C | 36% | 1018 hPa | 0 mm | - | 873 W/m² | - |
| 1777309979 | 16.67° C | 40% | 1018.1 hPa | 0 mm | - | 231 W/m² | - |
| 1777309676 | 16.67° C | 40% | 1018 hPa | 0 mm | - | 225 W/m² | - |
| 1777309374 | 16.67° C | 43% | 1018.1 hPa | 0 mm | - | 165 W/m² | - |
| 1777309071 | 17.78° C | 41% | 1017.9 hPa | 0 mm | - | 151 W/m² | - |
| 1777308769 | 17.78° C | 42% | 1018.1 hPa | 0 mm | - | 136 W/m² | - |
| 1777308463 | 17.78° C | 42% | 1018.1 hPa | 0 mm | - | 122 W/m² | - |
| 1777308159 | 17.78° C | 42% | 1018 hPa | 0 mm | - | 110 W/m² | - |
| 1777307856 | 19.44° C | 41% | 1017.9 hPa | 0 mm | - | 222 W/m² | - |
| 1777307554 | 18.89° C | 40% | 1017.7 hPa | 0 mm | - | 189 W/m² | - |
| 1777307250 | 19.44° C | 39% | 1017.6 hPa | 0 mm | - | 197 W/m² | - |
| 1777306948 | 18.89° C | 42% | 1017.8 hPa | 0 mm | - | 207 W/m² | - |
* Rain latest hour (hover to see other rain measurements)
** Current wind speed in m/s (hover to see current wind gust speed)